Arnsberg, Germany

9:42 PM CET on November 27, 2014 (GMT +0100)
Neheim City | Change Station
CLOSE
Current Station
Personal Weather Station
Location: Arnsberg, NORDRHEIN-WESTFALEN
Elevation: 528 ft
Nearby Weather Stations

Elev 528 ft 51.45 °N, 7.96 °E | Updated 6 seconds ago

Light Drizzle
Light Drizzle
41.9 °F
Feels Like 37 °F
N
8.7
Wind Variable Wind from South
Gusts 9.8 mph

Today
High -- | Low -- °F
--% Chance of Precip.
Yesterday
High -- | Low -- °F
Precip. -- in
8:05 AM 4:26 PM
Waxing Crescent, 32% visible
Pressure 29.77 in
Visibility 6.2 miles
Clouds Mostly Cloudy 4500 ft
Windchill 37 °F
Dew Point 38 °F
Humidity 87%
Rainfall 0.02 in
Snow Depth Not available.
UV 0.0 out of 12
Pollen Not available.
Air Quality Not available.
Flu Activity Not available.
METAR EDLW 272020Z VRB03KT 9999 -DZ BKN045 06/04 Q1008 RMK ATIS G

More Conditions Fewer Conditions

Pressure 29.77 in
Visibility 6.2 miles
Clouds Mostly Cloudy 4500 ft
Windchill 37 °F
Dew Point 38 °F
Humidity 87%
Rainfall 0.02 in
Snow Depth Not available.
UV 0.0 out of 12
Pollen Not available.
Air Quality Not available.
Flu Activity Not available.
METAR EDLW 272020Z VRB03KT 9999 -DZ BKN045 06/04 Q1008 RMK ATIS G

More Conditions Fewer Conditions

10-Day Weather Forecast

Almanac

Astronomy

Nov. 27, 2014 Rise Set
Actual Time
Civil Twilight
Nautical Twilight
Astronomical Twilight
Moon
Length of Visible Light
Length of Day
Tomorrow will be .
, % of the Moon is Illuminated

Today's Extremes

Country Highs Country Lows

Community

WunderPhotos

Upload Photos

1,774,100 photos uploaded!

WunderBlogs® & News

Nearby

Air Quality

  Air Quality AQ Index Pollutant
Not available.

Snow Depth

Station Depth Elevation

Earthquake Activity

City Distance Mag. Time & Date
Minimum magnitude displayed is 2.5.

Coastal Water Temperatures

Place Temperature

Nearby Weather Stations